sensor_id;sensor_type;location;lat;lon;timestamp;P1;durP1;ratioP1;P2;durP2;ratioP2
57241;SDS011;43095;53.302;5.786;2023-02-12T00:00:58;49.05;;;12.50;;
57241;SDS011;43095;53.302;5.786;2023-02-12T00:04:36;53.15;;;11.95;;
57241;SDS011;43095;53.302;5.786;2023-02-12T00:30:24;42.30;;;15.60;;
57241;SDS011;43095;53.302;5.786;2023-02-12T00:44:36;56.40;;;16.83;;
57241;SDS011;43095;53.302;5.786;2023-02-12T00:55:40;31.48;;;13.00;;
57241;SDS011;43095;53.302;5.786;2023-02-12T01:10:58;40.05;;;15.73;;
57241;SDS011;43095;53.302;5.786;2023-02-12T01:22:15;36.50;;;14.07;;
57241;SDS011;43095;53.302;5.786;2023-02-12T01:44:27;48.55;;;17.58;;
57241;SDS011;43095;53.302;5.786;2023-02-12T01:48:11;49.30;;;17.17;;
57241;SDS011;43095;53.302;5.786;2023-02-12T01:51:32;37.22;;;15.00;;
57241;SDS011;43095;53.302;5.786;2023-02-12T02:02:59;56.55;;;16.52;;
57241;SDS011;43095;53.302;5.786;2023-02-12T02:54:32;54.00;;;13.82;;
57241;SDS011;43095;53.302;5.786;2023-02-12T03:01:51;107.20;;;17.65;;
57241;SDS011;43095;53.302;5.786;2023-02-12T03:05:34;119.63;;;18.23;;
57241;SDS011;43095;53.302;5.786;2023-02-12T03:09:13;90.93;;;20.65;;
57241;SDS011;43095;53.302;5.786;2023-02-12T03:31:29;46.20;;;9.93;;
57241;SDS011;43095;53.302;5.786;2023-02-12T03:35:29;30.83;;;9.00;;
57241;SDS011;43095;53.302;5.786;2023-02-12T04:02:37;163.25;;;14.45;;
57241;SDS011;43095;53.302;5.786;2023-02-12T04:10:03;114.72;;;12.40;;
57241;SDS011;43095;53.302;5.786;2023-02-12T04:29:15;31.88;;;9.90;;
57241;SDS011;43095;53.302;5.786;2023-02-12T04:32:32;62.75;;;10.90;;
57241;SDS011;43095;53.302;5.786;2023-02-12T04:44:38;39.38;;;12.73;;
57241;SDS011;43095;53.302;5.786;2023-02-12T04:48:23;134.20;;;16.77;;
57241;SDS011;43095;53.302;5.786;2023-02-12T04:51:57;84.07;;;17.52;;
57241;SDS011;43095;53.302;5.786;2023-02-12T05:16:28;146.05;;;25.90;;
57241;SDS011;43095;53.302;5.786;2023-02-12T05:20:16;62.17;;;21.30;;
57241;SDS011;43095;53.302;5.786;2023-02-12T05:24:07;92.22;;;21.65;;
57241;SDS011;43095;53.302;5.786;2023-02-12T05:27:21;105.22;;;23.80;;
57241;SDS011;43095;53.302;5.786;2023-02-12T05:34:51;73.35;;;19.65;;
57241;SDS011;43095;53.302;5.786;2023-02-12T05:42:41;71.40;;;20.02;;
57241;SDS011;43095;53.302;5.786;2023-02-12T05:49:50;63.15;;;18.58;;
57241;SDS011;43095;53.302;5.786;2023-02-12T05:52:58;57.58;;;18.38;;
57241;SDS011;43095;53.302;5.786;2023-02-12T05:56:54;85.20;;;21.55;;
57241;SDS011;43095;53.302;5.786;2023-02-12T06:00:05;64.85;;;20.35;;
57241;SDS011;43095;53.302;5.786;2023-02-12T06:04:07;60.25;;;20.13;;
57241;SDS011;43095;53.302;5.786;2023-02-12T06:08:18;59.17;;;21.08;;
57241;SDS011;43095;53.302;5.786;2023-02-12T06:11:59;71.00;;;22.08;;
57241;SDS011;43095;53.302;5.786;2023-02-12T06:15:19;58.20;;;20.17;;
57241;SDS011;43095;53.302;5.786;2023-02-12T06:18:42;57.92;;;20.35;;
57241;SDS011;43095;53.302;5.786;2023-02-12T06:22:15;64.80;;;21.83;;
57241;SDS011;43095;53.302;5.786;2023-02-12T06:25:56;72.38;;;22.58;;
57241;SDS011;43095;53.302;5.786;2023-02-12T06:44:50;67.03;;;20.95;;
57241;SDS011;43095;53.302;5.786;2023-02-12T06:55:37;62.60;;;20.23;;
57241;SDS011;43095;53.302;5.786;2023-02-12T07:03:29;72.72;;;21.55;;
57241;SDS011;43095;53.302;5.786;2023-02-12T07:16:54;66.78;;;21.40;;
57241;SDS011;43095;53.302;5.786;2023-02-12T07:24:12;93.70;;;24.92;;
57241;SDS011;43095;53.302;5.786;2023-02-12T07:27:26;71.28;;;24.00;;
57241;SDS011;43095;53.302;5.786;2023-02-12T07:35:02;80.85;;;24.77;;
57241;SDS011;43095;53.302;5.786;2023-02-12T07:42:06;79.80;;;24.35;;
57241;SDS011;43095;53.302;5.786;2023-02-12T07:45:31;79.85;;;24.67;;
57241;SDS011;43095;53.302;5.786;2023-02-12T07:52:47;87.88;;;25.13;;
57241;SDS011;43095;53.302;5.786;2023-02-12T08:00:14;103.53;;;28.02;;
57241;SDS011;43095;53.302;5.786;2023-02-12T08:11:53;86.85;;;26.65;;
57241;SDS011;43095;53.302;5.786;2023-02-12T08:34:51;85.82;;;28.05;;
57241;SDS011;43095;53.302;5.786;2023-02-12T08:53:44;80.53;;;30.40;;
57241;SDS011;43095;53.302;5.786;2023-02-12T08:57:50;74.18;;;28.98;;
57241;SDS011;43095;53.302;5.786;2023-02-12T09:02:02;77.45;;;27.70;;
57241;SDS011;43095;53.302;5.786;2023-02-12T09:05:55;67.77;;;25.77;;
57241;SDS011;43095;53.302;5.786;2023-02-12T09:08:41;70.03;;;29.23;;
57241;SDS011;43095;53.302;5.786;2023-02-12T09:15:56;72.25;;;27.95;;
57241;SDS011;43095;53.302;5.786;2023-02-12T09:22:05;60.58;;;25.40;;
57241;SDS011;43095;53.302;5.786;2023-02-12T09:24:37;57.85;;;26.00;;
57241;SDS011;43095;53.302;5.786;2023-02-12T09:27:04;60.42;;;25.70;;
57241;SDS011;43095;53.302;5.786;2023-02-12T09:29:32;55.72;;;26.90;;
57241;SDS011;43095;53.302;5.786;2023-02-12T09:31:59;60.15;;;25.65;;
57241;SDS011;43095;53.302;5.786;2023-02-12T09:34:34;58.80;;;25.23;;
57241;SDS011;43095;53.302;5.786;2023-02-12T09:37:05;55.42;;;25.42;;
57241;SDS011;43095;53.302;5.786;2023-02-12T09:39:32;57.10;;;25.00;;
57241;SDS011;43095;53.302;5.786;2023-02-12T09:44:42;55.30;;;27.73;;
57241;SDS011;43095;53.302;5.786;2023-02-12T09:47:13;55.22;;;25.80;;
57241;SDS011;43095;53.302;5.786;2023-02-12T09:52:17;49.03;;;24.23;;
57241;SDS011;43095;53.302;5.786;2023-02-12T09:54:45;46.95;;;22.85;;
57241;SDS011;43095;53.302;5.786;2023-02-12T09:57:27;48.90;;;25.25;;
57241;SDS011;43095;53.302;5.786;2023-02-12T09:59:57;50.60;;;24.63;;
57241;SDS011;43095;53.302;5.786;2023-02-12T10:02:25;50.10;;;24.50;;
57241;SDS011;43095;53.302;5.786;2023-02-12T10:04:53;47.72;;;23.23;;
57241;SDS011;43095;53.302;5.786;2023-02-12T10:07:49;41.65;;;22.65;;
57241;SDS011;43095;53.302;5.786;2023-02-12T10:12:57;42.88;;;23.60;;
57241;SDS011;43095;53.302;5.786;2023-02-12T10:15:34;38.33;;;20.75;;
57241;SDS011;43095;53.302;5.786;2023-02-12T10:18:10;39.75;;;23.00;;
57241;SDS011;43095;53.302;5.786;2023-02-12T10:20:47;38.03;;;22.25;;
57241;SDS011;43095;53.302;5.786;2023-02-12T10:25:56;39.60;;;21.20;;
57241;SDS011;43095;53.302;5.786;2023-02-12T10:28:31;37.85;;;21.45;;
57241;SDS011;43095;53.302;5.786;2023-02-12T10:31:01;42.13;;;22.33;;
57241;SDS011;43095;53.302;5.786;2023-02-12T10:33:36;38.38;;;21.92;;
57241;SDS011;43095;53.302;5.786;2023-02-12T10:38:38;31.73;;;18.70;;
57241;SDS011;43095;53.302;5.786;2023-02-12T10:41:09;32.42;;;19.63;;
57241;SDS011;43095;53.302;5.786;2023-02-12T10:43:39;33.60;;;19.48;;
57241;SDS011;43095;53.302;5.786;2023-02-12T10:46:15;35.55;;;21.85;;
57241;SDS011;43095;53.302;5.786;2023-02-12T10:48:45;28.45;;;17.35;;
57241;SDS011;43095;53.302;5.786;2023-02-12T10:57:09;27.45;;;16.73;;
57241;SDS011;43095;53.302;5.786;2023-02-12T10:59:38;26.77;;;16.80;;
57241;SDS011;43095;53.302;5.786;2023-02-12T11:02:19;33.50;;;18.58;;
57241;SDS011;43095;53.302;5.786;2023-02-12T11:04:48;28.67;;;17.73;;
57241;SDS011;43095;53.302;5.786;2023-02-12T11:07:16;26.52;;;16.30;;
57241;SDS011;43095;53.302;5.786;2023-02-12T11:09:46;30.30;;;17.38;;
57241;SDS011;43095;53.302;5.786;2023-02-12T11:14:52;29.27;;;16.50;;
57241;SDS011;43095;53.302;5.786;2023-02-12T11:17:24;29.27;;;17.17;;
57241;SDS011;43095;53.302;5.786;2023-02-12T11:22:39;32.20;;;19.20;;
57241;SDS011;43095;53.302;5.786;2023-02-12T11:25:15;29.65;;;17.33;;
57241;SDS011;43095;53.302;5.786;2023-02-12T11:27:43;30.85;;;18.95;;
57241;SDS011;43095;53.302;5.786;2023-02-12T11:30:18;29.02;;;18.67;;
57241;SDS011;43095;53.302;5.786;2023-02-12T11:32:48;35.10;;;19.02;;
57241;SDS011;43095;53.302;5.786;2023-02-12T11:35:24;29.73;;;17.45;;
57241;SDS011;43095;53.302;5.786;2023-02-12T11:37:54;29.88;;;18.13;;
57241;SDS011;43095;53.302;5.786;2023-02-12T11:42:57;28.65;;;17.80;;
57241;SDS011;43095;53.302;5.786;2023-02-12T11:45:33;32.75;;;19.00;;
57241;SDS011;43095;53.302;5.786;2023-02-12T11:48:11;28.63;;;16.75;;
57241;SDS011;43095;53.302;5.786;2023-02-12T11:50:45;30.08;;;18.00;;
57241;SDS011;43095;53.302;5.786;2023-02-12T11:53:18;26.02;;;18.20;;
57241;SDS011;43095;53.302;5.786;2023-02-12T11:56:20;27.23;;;16.60;;
57241;SDS011;43095;53.302;5.786;2023-02-12T11:58:40;30.73;;;18.92;;
57241;SDS011;43095;53.302;5.786;2023-02-12T12:01:27;33.38;;;18.25;;
57241;SDS011;43095;53.302;5.786;2023-02-12T12:11:31;34.20;;;20.30;;
57241;SDS011;43095;53.302;5.786;2023-02-12T12:14:02;29.08;;;18.17;;
57241;SDS011;43095;53.302;5.786;2023-02-12T12:27:32;29.15;;;19.70;;
57241;SDS011;43095;53.302;5.786;2023-02-12T12:30:22;29.55;;;19.20;;
57241;SDS011;43095;53.302;5.786;2023-02-12T12:32:51;29.65;;;18.45;;
57241;SDS011;43095;53.302;5.786;2023-02-12T12:35:33;28.85;;;18.73;;
57241;SDS011;43095;53.302;5.786;2023-02-12T12:38:06;31.42;;;18.60;;
57241;SDS011;43095;53.302;5.786;2023-02-12T12:40:46;27.30;;;17.38;;
57241;SDS011;43095;53.302;5.786;2023-02-12T12:43:20;29.60;;;17.02;;
57241;SDS011;43095;53.302;5.786;2023-02-12T12:45:56;27.00;;;18.73;;
57241;SDS011;43095;53.302;5.786;2023-02-12T12:53:41;28.15;;;17.40;;
57241;SDS011;43095;53.302;5.786;2023-02-12T12:56:20;27.30;;;17.33;;
57241;SDS011;43095;53.302;5.786;2023-02-12T12:58:52;26.83;;;18.15;;
57241;SDS011;43095;53.302;5.786;2023-02-12T13:16:39;16.52;;;12.05;;
57241;SDS011;43095;53.302;5.786;2023-02-12T13:24:24;17.33;;;11.73;;
57241;SDS011;43095;53.302;5.786;2023-02-12T13:26:54;20.73;;;11.90;;
57241;SDS011;43095;53.302;5.786;2023-02-12T13:29:34;16.90;;;10.80;;
57241;SDS011;43095;53.302;5.786;2023-02-12T13:32:06;14.50;;;11.15;;
57241;SDS011;43095;53.302;5.786;2023-02-12T13:34:39;17.17;;;10.93;;
57241;SDS011;43095;53.302;5.786;2023-02-12T13:37:13;15.00;;;10.13;;
57241;SDS011;43095;53.302;5.786;2023-02-12T13:39:44;17.17;;;10.73;;
57241;SDS011;43095;53.302;5.786;2023-02-12T13:50:43;13.88;;;10.30;;
57241;SDS011;43095;53.302;5.786;2023-02-12T13:56:18;16.67;;;10.70;;
57241;SDS011;43095;53.302;5.786;2023-02-12T13:58:55;15.38;;;9.35;;
57241;SDS011;43095;53.302;5.786;2023-02-12T14:01:42;15.35;;;9.75;;
57241;SDS011;43095;53.302;5.786;2023-02-12T14:04:32;15.07;;;10.57;;
57241;SDS011;43095;53.302;5.786;2023-02-12T14:09:32;12.85;;;9.60;;
57241;SDS011;43095;53.302;5.786;2023-02-12T14:12:01;15.00;;;10.10;;
57241;SDS011;43095;53.302;5.786;2023-02-12T14:14:31;16.02;;;9.70;;
57241;SDS011;43095;53.302;5.786;2023-02-12T14:20:10;15.70;;;10.40;;
57241;SDS011;43095;53.302;5.786;2023-02-12T14:28:13;15.05;;;10.65;;
57241;SDS011;43095;53.302;5.786;2023-02-12T14:30:43;14.98;;;10.55;;
57241;SDS011;43095;53.302;5.786;2023-02-12T14:33:21;13.95;;;9.98;;
57241;SDS011;43095;53.302;5.786;2023-02-12T14:36:11;15.77;;;9.88;;
57241;SDS011;43095;53.302;5.786;2023-02-12T14:44:46;18.42;;;10.00;;
57241;SDS011;43095;53.302;5.786;2023-02-12T14:46:52;16.45;;;10.88;;
57241;SDS011;43095;53.302;5.786;2023-02-12T14:49:22;17.77;;;11.13;;
57241;SDS011;43095;53.302;5.786;2023-02-12T14:57:07;13.30;;;9.57;;
57241;SDS011;43095;53.302;5.786;2023-02-12T14:59:39;14.88;;;10.07;;
57241;SDS011;43095;53.302;5.786;2023-02-12T15:02:13;14.77;;;10.32;;
57241;SDS011;43095;53.302;5.786;2023-02-12T15:04:42;15.02;;;9.52;;
57241;SDS011;43095;53.302;5.786;2023-02-12T15:07:13;17.67;;;9.43;;
57241;SDS011;43095;53.302;5.786;2023-02-12T15:09:56;15.50;;;9.25;;
57241;SDS011;43095;53.302;5.786;2023-02-12T15:12:28;13.68;;;10.10;;
57241;SDS011;43095;53.302;5.786;2023-02-12T15:17:53;13.20;;;9.77;;
57241;SDS011;43095;53.302;5.786;2023-02-12T15:20:22;12.60;;;9.68;;
57241;SDS011;43095;53.302;5.786;2023-02-12T15:22:50;15.45;;;10.43;;
57241;SDS011;43095;53.302;5.786;2023-02-12T15:27:49;15.73;;;11.00;;
57241;SDS011;43095;53.302;5.786;2023-02-12T15:30:21;16.13;;;10.55;;
57241;SDS011;43095;53.302;5.786;2023-02-12T15:32:53;22.48;;;11.90;;
57241;SDS011;43095;53.302;5.786;2023-02-12T15:35:23;15.25;;;9.70;;
57241;SDS011;43095;53.302;5.786;2023-02-12T15:37:52;18.17;;;11.80;;
57241;SDS011;43095;53.302;5.786;2023-02-12T15:40:20;16.00;;;11.07;;
57241;SDS011;43095;53.302;5.786;2023-02-12T15:42:53;19.77;;;12.77;;
57241;SDS011;43095;53.302;5.786;2023-02-12T15:45:25;18.15;;;13.40;;
57241;SDS011;43095;53.302;5.786;2023-02-12T15:50:23;19.95;;;13.55;;
57241;SDS011;43095;53.302;5.786;2023-02-12T15:52:51;17.90;;;12.23;;
57241;SDS011;43095;53.302;5.786;2023-02-12T15:55:20;17.83;;;13.77;;
57241;SDS011;43095;53.302;5.786;2023-02-12T15:57:57;21.25;;;13.55;;
57241;SDS011;43095;53.302;5.786;2023-02-12T16:00:43;18.52;;;11.98;;
57241;SDS011;43095;53.302;5.786;2023-02-12T16:03:29;21.00;;;14.70;;
57241;SDS011;43095;53.302;5.786;2023-02-12T16:08:34;16.45;;;12.75;;
57241;SDS011;43095;53.302;5.786;2023-02-12T16:11:02;17.15;;;13.18;;
57241;SDS011;43095;53.302;5.786;2023-02-12T16:13:49;18.10;;;14.07;;
57241;SDS011;43095;53.302;5.786;2023-02-12T16:16:23;16.02;;;12.95;;
57241;SDS011;43095;53.302;5.786;2023-02-12T16:21:38;18.38;;;13.02;;
57241;SDS011;43095;53.302;5.786;2023-02-12T16:24:11;20.60;;;13.93;;
57241;SDS011;43095;53.302;5.786;2023-02-12T16:26:48;20.63;;;14.52;;
57241;SDS011;43095;53.302;5.786;2023-02-12T16:29:16;19.73;;;14.15;;
57241;SDS011;43095;53.302;5.786;2023-02-12T16:31:52;20.40;;;14.40;;
57241;SDS011;43095;53.302;5.786;2023-02-12T16:34:33;19.80;;;14.25;;
57241;SDS011;43095;53.302;5.786;2023-02-12T16:42:20;21.45;;;13.73;;
57241;SDS011;43095;53.302;5.786;2023-02-12T16:44:52;19.75;;;15.23;;
57241;SDS011;43095;53.302;5.786;2023-02-12T16:47:23;21.95;;;15.90;;
57241;SDS011;43095;53.302;5.786;2023-02-12T16:49:55;19.85;;;14.52;;
57241;SDS011;43095;53.302;5.786;2023-02-12T16:52:44;25.00;;;17.58;;
57241;SDS011;43095;53.302;5.786;2023-02-12T16:55:15;20.15;;;15.18;;
57241;SDS011;43095;53.302;5.786;2023-02-12T16:57:43;21.57;;;15.50;;
57241;SDS011;43095;53.302;5.786;2023-02-12T17:00:13;17.23;;;13.85;;
57241;SDS011;43095;53.302;5.786;2023-02-12T17:02:42;19.17;;;14.23;;
57241;SDS011;43095;53.302;5.786;2023-02-12T17:05:10;23.10;;;16.45;;
57241;SDS011;43095;53.302;5.786;2023-02-12T17:07:37;20.92;;;14.82;;
57241;SDS011;43095;53.302;5.786;2023-02-12T17:10:05;22.23;;;16.15;;
57241;SDS011;43095;53.302;5.786;2023-02-12T17:12:43;24.27;;;15.57;;
57241;SDS011;43095;53.302;5.786;2023-02-12T17:15:12;24.98;;;15.70;;
57241;SDS011;43095;53.302;5.786;2023-02-12T17:17:40;20.65;;;16.02;;
57241;SDS011;43095;53.302;5.786;2023-02-12T17:20:08;20.20;;;15.80;;
57241;SDS011;43095;53.302;5.786;2023-02-12T17:22:38;21.25;;;14.90;;
57241;SDS011;43095;53.302;5.786;2023-02-12T17:25:08;23.45;;;15.93;;
57241;SDS011;43095;53.302;5.786;2023-02-12T17:27:36;21.70;;;15.38;;
57241;SDS011;43095;53.302;5.786;2023-02-12T17:30:03;27.63;;;16.65;;
57241;SDS011;43095;53.302;5.786;2023-02-12T17:32:32;26.10;;;18.83;;
57241;SDS011;43095;53.302;5.786;2023-02-12T17:35:00;25.80;;;17.52;;
57241;SDS011;43095;53.302;5.786;2023-02-12T17:37:27;24.70;;;18.02;;
57241;SDS011;43095;53.302;5.786;2023-02-12T17:39:55;24.75;;;17.85;;
57241;SDS011;43095;53.302;5.786;2023-02-12T17:42:22;27.00;;;18.33;;
57241;SDS011;43095;53.302;5.786;2023-02-12T17:44:50;26.17;;;18.95;;
57241;SDS011;43095;53.302;5.786;2023-02-12T17:47:18;26.02;;;18.80;;
57241;SDS011;43095;53.302;5.786;2023-02-12T17:49:46;24.50;;;17.73;;
57241;SDS011;43095;53.302;5.786;2023-02-12T17:52:15;24.35;;;17.67;;
57241;SDS011;43095;53.302;5.786;2023-02-12T17:54:43;24.58;;;17.52;;
57241;SDS011;43095;53.302;5.786;2023-02-12T17:57:11;26.15;;;17.55;;
57241;SDS011;43095;53.302;5.786;2023-02-12T17:59:40;26.88;;;17.67;;
57241;SDS011;43095;53.302;5.786;2023-02-12T18:02:09;24.77;;;18.55;;
57241;SDS011;43095;53.302;5.786;2023-02-12T18:04:36;25.92;;;18.65;;
57241;SDS011;43095;53.302;5.786;2023-02-12T18:07:04;31.27;;;18.60;;
57241;SDS011;43095;53.302;5.786;2023-02-12T18:09:32;24.40;;;17.83;;
57241;SDS011;43095;53.302;5.786;2023-02-12T18:11:59;24.85;;;18.05;;
57241;SDS011;43095;53.302;5.786;2023-02-12T18:14:27;25.48;;;18.38;;
57241;SDS011;43095;53.302;5.786;2023-02-12T18:16:54;24.40;;;18.30;;
57241;SDS011;43095;53.302;5.786;2023-02-12T18:19:25;22.75;;;17.40;;
57241;SDS011;43095;53.302;5.786;2023-02-12T18:21:52;24.65;;;17.88;;
57241;SDS011;43095;53.302;5.786;2023-02-12T18:24:20;23.73;;;17.38;;
57241;SDS011;43095;53.302;5.786;2023-02-12T18:26:47;24.23;;;18.55;;
57241;SDS011;43095;53.302;5.786;2023-02-12T18:29:15;26.80;;;18.90;;
57241;SDS011;43095;53.302;5.786;2023-02-12T18:31:42;27.92;;;18.77;;
57241;SDS011;43095;53.302;5.786;2023-02-12T18:34:10;27.40;;;17.80;;
57241;SDS011;43095;53.302;5.786;2023-02-12T18:36:38;23.60;;;17.63;;
57241;SDS011;43095;53.302;5.786;2023-02-12T18:39:05;30.13;;;18.30;;
57241;SDS011;43095;53.302;5.786;2023-02-12T18:41:33;22.30;;;15.73;;
57241;SDS011;43095;53.302;5.786;2023-02-12T18:44:01;23.02;;;16.48;;
57241;SDS011;43095;53.302;5.786;2023-02-12T18:46:30;28.02;;;17.70;;
57241;SDS011;43095;53.302;5.786;2023-02-12T18:48:59;24.52;;;17.15;;
57241;SDS011;43095;53.302;5.786;2023-02-12T18:51:28;23.83;;;16.40;;
57241;SDS011;43095;53.302;5.786;2023-02-12T18:53:57;23.80;;;16.73;;
57241;SDS011;43095;53.302;5.786;2023-02-12T18:56:29;23.98;;;15.57;;
57241;SDS011;43095;53.302;5.786;2023-02-12T18:58:57;26.13;;;17.42;;
57241;SDS011;43095;53.302;5.786;2023-02-12T19:01:29;23.65;;;17.67;;
57241;SDS011;43095;53.302;5.786;2023-02-12T19:03:57;25.42;;;16.55;;
57241;SDS011;43095;53.302;5.786;2023-02-12T19:06:26;24.30;;;17.67;;
57241;SDS011;43095;53.302;5.786;2023-02-12T19:08:54;22.85;;;16.25;;
57241;SDS011;43095;53.302;5.786;2023-02-12T19:11:22;24.33;;;17.20;;
57241;SDS011;43095;53.302;5.786;2023-02-12T19:13:50;21.65;;;14.52;;
57241;SDS011;43095;53.302;5.786;2023-02-12T19:16:18;22.23;;;15.73;;
57241;SDS011;43095;53.302;5.786;2023-02-12T19:18:52;22.27;;;15.40;;
57241;SDS011;43095;53.302;5.786;2023-02-12T19:21:21;25.75;;;17.63;;
57241;SDS011;43095;53.302;5.786;2023-02-12T19:23:52;23.85;;;17.83;;
57241;SDS011;43095;53.302;5.786;2023-02-12T19:26:20;29.33;;;20.65;;
57241;SDS011;43095;53.302;5.786;2023-02-12T19:28:50;24.52;;;17.90;;
57241;SDS011;43095;53.302;5.786;2023-02-12T19:31:23;25.52;;;18.58;;
57241;SDS011;43095;53.302;5.786;2023-02-12T19:33:55;22.45;;;16.20;;
57241;SDS011;43095;53.302;5.786;2023-02-12T19:36:25;23.27;;;16.95;;
57241;SDS011;43095;53.302;5.786;2023-02-12T19:38:52;24.30;;;17.48;;
57241;SDS011;43095;53.302;5.786;2023-02-12T19:41:21;25.00;;;17.95;;
57241;SDS011;43095;53.302;5.786;2023-02-12T19:43:52;24.15;;;17.17;;
57241;SDS011;43095;53.302;5.786;2023-02-12T19:46:21;26.17;;;16.25;;
57241;SDS011;43095;53.302;5.786;2023-02-12T19:48:55;28.95;;;17.55;;
57241;SDS011;43095;53.302;5.786;2023-02-12T19:51:23;25.38;;;17.17;;
57241;SDS011;43095;53.302;5.786;2023-02-12T19:53:53;25.55;;;16.50;;
57241;SDS011;43095;53.302;5.786;2023-02-12T19:56:22;21.90;;;16.20;;
57241;SDS011;43095;53.302;5.786;2023-02-12T19:58:49;22.15;;;15.73;;
57241;SDS011;43095;53.302;5.786;2023-02-12T20:01:17;21.75;;;15.90;;
57241;SDS011;43095;53.302;5.786;2023-02-12T20:03:46;25.27;;;17.75;;
57241;SDS011;43095;53.302;5.786;2023-02-12T20:06:21;22.83;;;15.75;;
57241;SDS011;43095;53.302;5.786;2023-02-12T20:08:49;23.35;;;16.25;;
57241;SDS011;43095;53.302;5.786;2023-02-12T20:11:18;24.85;;;17.27;;
57241;SDS011;43095;53.302;5.786;2023-02-12T20:13:46;27.63;;;17.35;;
57241;SDS011;43095;53.302;5.786;2023-02-12T20:16:15;25.60;;;17.08;;
57241;SDS011;43095;53.302;5.786;2023-02-12T20:18:43;25.02;;;17.15;;
57241;SDS011;43095;53.302;5.786;2023-02-12T20:21:13;23.70;;;15.95;;
57241;SDS011;43095;53.302;5.786;2023-02-12T20:23:40;24.77;;;17.50;;
57241;SDS011;43095;53.302;5.786;2023-02-12T20:26:09;22.25;;;15.77;;
57241;SDS011;43095;53.302;5.786;2023-02-12T20:28:37;24.30;;;17.27;;
57241;SDS011;43095;53.302;5.786;2023-02-12T20:31:14;24.58;;;17.65;;
57241;SDS011;43095;53.302;5.786;2023-02-12T20:33:42;25.42;;;18.13;;
57241;SDS011;43095;53.302;5.786;2023-02-12T20:36:09;24.75;;;17.55;;
57241;SDS011;43095;53.302;5.786;2023-02-12T20:38:41;26.27;;;18.48;;
57241;SDS011;43095;53.302;5.786;2023-02-12T20:41:10;30.48;;;17.73;;
57241;SDS011;43095;53.302;5.786;2023-02-12T20:43:38;23.42;;;17.58;;
57241;SDS011;43095;53.302;5.786;2023-02-12T20:46:07;24.55;;;17.05;;
57241;SDS011;43095;53.302;5.786;2023-02-12T20:48:35;29.30;;;18.95;;
57241;SDS011;43095;53.302;5.786;2023-02-12T20:51:03;28.58;;;18.85;;
57241;SDS011;43095;53.302;5.786;2023-02-12T20:53:31;28.90;;;18.67;;
57241;SDS011;43095;53.302;5.786;2023-02-12T20:56:09;25.52;;;18.83;;
57241;SDS011;43095;53.302;5.786;2023-02-12T20:58:36;27.85;;;17.30;;
57241;SDS011;43095;53.302;5.786;2023-02-12T21:01:07;27.33;;;18.40;;
57241;SDS011;43095;53.302;5.786;2023-02-12T21:03:35;26.67;;;18.70;;
57241;SDS011;43095;53.302;5.786;2023-02-12T21:06:03;26.67;;;17.50;;
57241;SDS011;43095;53.302;5.786;2023-02-12T21:08:31;25.83;;;18.48;;
57241;SDS011;43095;53.302;5.786;2023-02-12T21:11:05;26.83;;;18.20;;
57241;SDS011;43095;53.302;5.786;2023-02-12T21:13:33;28.42;;;19.52;;
57241;SDS011;43095;53.302;5.786;2023-02-12T21:16:06;28.05;;;18.30;;
57241;SDS011;43095;53.302;5.786;2023-02-12T21:18:36;22.70;;;16.63;;
57241;SDS011;43095;53.302;5.786;2023-02-12T21:21:05;25.52;;;17.17;;
57241;SDS011;43095;53.302;5.786;2023-02-12T21:23:39;26.50;;;17.67;;
57241;SDS011;43095;53.302;5.786;2023-02-12T21:26:08;25.25;;;17.13;;
57241;SDS011;43095;53.302;5.786;2023-02-12T21:28:36;23.38;;;16.70;;
57241;SDS011;43095;53.302;5.786;2023-02-12T21:31:04;24.17;;;17.13;;
57241;SDS011;43095;53.302;5.786;2023-02-12T21:33:32;27.02;;;18.15;;
57241;SDS011;43095;53.302;5.786;2023-02-12T21:36:06;25.17;;;17.85;;
57241;SDS011;43095;53.302;5.786;2023-02-12T21:38:34;24.20;;;17.27;;
57241;SDS011;43095;53.302;5.786;2023-02-12T21:41:18;27.13;;;18.05;;
57241;SDS011;43095;53.302;5.786;2023-02-12T21:43:48;25.67;;;17.48;;
57241;SDS011;43095;53.302;5.786;2023-02-12T21:46:16;29.55;;;18.40;;
57241;SDS011;43095;53.302;5.786;2023-02-12T21:48:44;27.13;;;18.15;;
57241;SDS011;43095;53.302;5.786;2023-02-12T21:53:46;27.63;;;18.25;;
57241;SDS011;43095;53.302;5.786;2023-02-12T21:56:15;26.08;;;18.27;;
57241;SDS011;43095;53.302;5.786;2023-02-12T21:58:42;27.20;;;17.27;;
57241;SDS011;43095;53.302;5.786;2023-02-12T22:01:17;26.40;;;17.52;;
57241;SDS011;43095;53.302;5.786;2023-02-12T22:03:45;28.55;;;18.67;;
57241;SDS011;43095;53.302;5.786;2023-02-12T22:06:14;27.17;;;16.63;;
57241;SDS011;43095;53.302;5.786;2023-02-12T22:08:45;26.95;;;18.27;;
57241;SDS011;43095;53.302;5.786;2023-02-12T22:11:14;27.70;;;19.17;;
57241;SDS011;43095;53.302;5.786;2023-02-12T22:13:43;26.38;;;18.95;;
57241;SDS011;43095;53.302;5.786;2023-02-12T22:18:40;27.92;;;19.20;;
57241;SDS011;43095;53.302;5.786;2023-02-12T22:21:09;28.40;;;17.73;;
57241;SDS011;43095;53.302;5.786;2023-02-12T22:23:39;33.15;;;18.33;;
57241;SDS011;43095;53.302;5.786;2023-02-12T22:26:11;29.67;;;19.35;;
57241;SDS011;43095;53.302;5.786;2023-02-12T22:28:39;29.10;;;17.77;;
57241;SDS011;43095;53.302;5.786;2023-02-12T22:31:08;27.50;;;17.98;;
57241;SDS011;43095;53.302;5.786;2023-02-12T22:33:38;27.20;;;18.67;;
57241;SDS011;43095;53.302;5.786;2023-02-12T22:36:06;26.20;;;18.20;;
57241;SDS011;43095;53.302;5.786;2023-02-12T22:38:35;25.73;;;17.95;;
57241;SDS011;43095;53.302;5.786;2023-02-12T22:41:03;27.48;;;19.42;;
57241;SDS011;43095;53.302;5.786;2023-02-12T22:43:34;32.70;;;19.58;;
57241;SDS011;43095;53.302;5.786;2023-02-12T22:46:02;28.45;;;19.83;;
57241;SDS011;43095;53.302;5.786;2023-02-12T22:48:30;27.17;;;18.60;;
57241;SDS011;43095;53.302;5.786;2023-02-12T22:50:57;30.30;;;18.60;;
57241;SDS011;43095;53.302;5.786;2023-02-12T22:53:25;28.67;;;18.63;;
57241;SDS011;43095;53.302;5.786;2023-02-12T22:55:55;28.60;;;19.42;;
57241;SDS011;43095;53.302;5.786;2023-02-12T22:58:22;27.23;;;19.25;;
57241;SDS011;43095;53.302;5.786;2023-02-12T23:00:50;28.85;;;19.90;;
57241;SDS011;43095;53.302;5.786;2023-02-12T23:03:20;25.83;;;17.27;;
57241;SDS011;43095;53.302;5.786;2023-02-12T23:05:47;28.23;;;19.73;;
57241;SDS011;43095;53.302;5.786;2023-02-12T23:08:15;28.15;;;18.70;;
57241;SDS011;43095;53.302;5.786;2023-02-12T23:10:42;26.42;;;18.17;;
57241;SDS011;43095;53.302;5.786;2023-02-12T23:13:10;27.92;;;19.33;;
57241;SDS011;43095;53.302;5.786;2023-02-12T23:15:54;29.48;;;18.77;;
57241;SDS011;43095;53.302;5.786;2023-02-12T23:18:23;26.60;;;17.95;;
57241;SDS011;43095;53.302;5.786;2023-02-12T23:20:51;26.38;;;17.92;;
57241;SDS011;43095;53.302;5.786;2023-02-12T23:23:19;29.13;;;19.95;;
57241;SDS011;43095;53.302;5.786;2023-02-12T23:25:47;35.75;;;20.73;;
57241;SDS011;43095;53.302;5.786;2023-02-12T23:28:17;26.75;;;18.05;;
57241;SDS011;43095;53.302;5.786;2023-02-12T23:30:50;26.77;;;18.15;;
57241;SDS011;43095;53.302;5.786;2023-02-12T23:33:18;31.50;;;18.95;;
57241;SDS011;43095;53.302;5.786;2023-02-12T23:35:48;28.40;;;18.67;;
57241;SDS011;43095;53.302;5.786;2023-02-12T23:38:18;29.30;;;18.48;;
57241;SDS011;43095;53.302;5.786;2023-02-12T23:40:46;28.30;;;18.67;;